Latest Weather Observations for Cape Naturaliste

IDW60801

Issued at 3:35 pm WST Thursday 18 September 2014 (issued every 30 minutes, with the page automatically refreshed every 10 minutes)

About weather observations | Map of weather stations | Latest weather observations for WA | Other Formats
Station Details ID: 009519 Name: CAPE NATURALISTE Lat: -33.54 Lon: 115.02 Height: 109.0 m
Data from the previous 72 hours. | See also: Recent months at Cape Naturaliste
Date/Time
WST
Temp
°C
App
Temp
°C
Dew
Point
Rel
Hum
%
Delta-T
°C
Wind Press
QNH
hPa
Press
MSL
hPa
Rain
since 9 am
mm
Dir
 
Spd
km/h
Gust
km/h
Spd
kts
Gust
kts
18/03:30pm 18.7 13.6 12.0 65 3.7 SW 30 39 16 21 1017.3 1017.3 0.0
18/03:00pm 19.4 14.8 12.4 64 3.9 SW 28 37 15 20 1017.2 1017.2 0.0
18/02:30pm 19.1 14.4 12.1 64 3.9 SW 28 39 15 21 1017.1 1017.1 0.0
18/02:00pm 19.3 14.9 12.8 66 3.7 SW 28 37 15 20 1017.2 1017.2 0.0
18/01:30pm 19.4 14.2 12.7 65 3.8 SW 32 39 17 21 1017.4 1017.4 0.0
18/01:00pm 19.4 15.0 12.9 66 3.7 SW 28 35 15 19 1017.5 1017.5 0.0
18/12:30pm 19.3 14.5 13.0 67 3.6 SW 30 41 16 22 1017.6 1017.6 0.0
18/12:00pm 19.5 15.6 13.2 67 3.6 SW 26 37 14 20 1017.6 1017.6 0.0
18/11:30am 19.5 15.6 13.4 68 3.5 SW 26 39 14 21 1017.9 1017.9 0.0
18/11:00am 19.7 17.1 13.9 69 3.3 SW 20 30 11 16 1018.3 1018.3 0.0
18/10:30am 19.5 16.9 13.9 70 3.2 SSW 20 30 11 16 1018.3 1018.3 0.0
18/10:00am 18.9 16.2 13.5 71 3.1 SSW 20 30 11 16 1018.4 1018.4 0.0
18/09:30am 19.1 16.5 13.7 71 3.1 SSW 20 30 11 16 1018.3 1018.3 0.0
18/09:00am 18.6 15.9 13.5 72 2.9 SSW 20 26 11 14 1018.2 1018.2 0.0
18/08:30am 17.9 14.7 13.0 73 2.8 SSW 22 33 12 18 1018.1 1018.1 0.0
18/08:00am 16.9 12.7 12.4 75 2.5 SSW 26 33 14 18 1018.0 1018.0 0.0
18/07:30am 15.9 11.1 11.7 76 2.3 SSW 28 33 15 18 1017.7 1017.7 0.0
18/07:00am 15.1 10.1 11.1 77 2.1 SSW 28 32 15 17 1017.6 1017.6 0.0
18/06:30am 14.5 10.2 10.7 78 2.0 S 24 32 13 17 1017.3 1017.3 0.0
18/06:00am 14.5 9.5 10.9 79 1.9 S 28 35 15 19 1017.2 1017.2 0.0
18/05:30am 14.4 9.8 11.0 80 1.8 S 26 32 14 17 1017.0 1017.0 0.0
18/05:00am 14.4 9.4 11.0 80 1.8 S 28 35 15 19 1017.0 1017.0 0.0
18/04:30am 14.0 9.0 10.8 81 1.7 S 28 33 15 18 1017.0 1017.0 0.0
18/04:00am 13.3 8.8 10.1 81 1.7 SSW 24 33 13 18 1017.2 1017.2 0.0
18/03:30am 13.2 9.3 9.6 79 1.8 SSW 20 26 11 14 1017.2 1017.2 0.0
18/03:00am 13.3 10.3 9.4 77 2.0 SSW 15 20 8 11 1017.1 1017.1 0.0
18/02:30am 13.8 10.7 8.8 72 2.5 SSW 15 20 8 11 1017.2 1017.2 0.0
18/02:00am 14.5 10.6 9.3 71 2.7 S 20 26 11 14 1017.3 1017.3 0.0
18/01:30am 14.5 10.1 10.3 76 2.2 SSE 24 32 13 17 1017.5 1017.5 0.0
18/01:00am 14.4 10.1 10.8 79 1.9 SSE 24 33 13 18 1017.6 1017.6 0.0
18/12:30am 14.2 10.0 11.2 82 1.6 SSE 24 32 13 17 1017.6 1017.6 0.0
18/12:00am 14.3 9.5 11.6 84 1.5 SSE 28 35 15 19 1017.4 1017.4 0.0
 
Date/Time
WST
Temp
°C
App
Temp
°C
Dew
Point
Rel
Hum
%
Delta-T
°C
Wind Press
QNH
hPa
Press
MSL
hPa
Rain
since 9 am
mm
Dir
 
Spd
km/h
Gust
km/h
Spd
kts
Gust
kts
17/11:30pm 14.2 10.5 11.5 84 1.4 SSE 22 30 12 16 1017.5 1017.5 0.0
17/11:00pm 14.3 9.9 11.6 84 1.5 S 26 33 14 18 1017.7 1017.7 0.0
17/10:30pm 14.2 10.1 11.5 84 1.4 S 24 33 13 18 1017.8 1017.8 0.0
17/10:00pm 14.1 9.6 11.4 84 1.4 S 26 37 14 20 1017.8 1017.8 0.0
17/09:30pm 14.2 9.7 11.4 83 1.5 S 26 35 14 19 1017.9 1017.9 0.0
17/09:00pm 14.3 9.4 11.3 82 1.6 S 28 33 15 18 1017.9 1017.9 0.0
17/08:30pm 14.1 10.1 10.3 78 2.0 S 22 32 12 17 1017.7 1017.7 0.0
17/08:00pm 14.4 9.2 10.2 76 2.2 S 28 33 15 18 1017.4 1017.4 0.0
17/07:30pm 14.7 9.4 9.7 72 2.6 SSW 28 39 15 21 1016.9 1016.9 0.0
17/07:00pm 15.4 9.7 9.7 69 3.0 SSW 30 35 16 19 1016.4 1016.4 0.0
17/06:30pm 16.0 11.3 9.4 65 3.4 S 24 30 13 16 1016.3 1016.3 0.0
17/06:00pm 17.1 12.3 9.0 59 4.2 S 24 30 13 16 1016.0 1016.0 0.0
17/05:30pm 18.5 14.0 10.1 58 4.5 SSW 24 33 13 18 1015.6 1015.6 0.0
17/05:00pm 19.3 14.2 11.8 62 4.2 SSW 30 39 16 21 1015.4 1015.4 0.0
17/04:30pm 19.6 13.7 10.6 56 4.9 SSW 32 43 17 23 1015.2 1015.2 0.0
17/04:00pm 19.6 13.5 10.3 55 5.0 SSW 33 43 18 23 1015.1 1015.1 0.0
17/03:30pm 19.8 14.2 11.6 59 4.5 SSW 32 43 17 23 1015.0 1015.0 0.0
17/03:00pm 19.9 14.6 11.1 57 4.8 SSW 30 41 16 22 1014.9 1014.9 0.0
17/02:30pm 20.2 15.8 11.7 58 4.7 SSW 26 37 14 20 1015.2 1015.2 0.0
17/02:00pm 20.0 15.7 10.7 55 5.1 SSW 24 30 13 16 1015.2 1015.2 0.0
17/01:30pm 20.7 17.4 11.6 56 5.1 SW 20 28 11 15 1015.3 1015.3 0.0
17/01:00pm 20.9 17.3 10.7 52 5.6 SSW 20 30 11 16 1015.7 1015.7 0.0
17/12:30pm 20.4 16.8 11.9 58 4.8 SSW 22 32 12 17 1016.1 1016.1 0.0
17/12:00pm 19.9 16.4 10.9 56 4.9 SSW 20 26 11 14 1016.6 1016.6 0.0
17/11:30am 19.5 15.6 10.8 57 4.7 SSW 22 30 12 16 1017.0 1017.0 0.0
17/11:00am 19.8 16.3 10.2 54 5.2 SW 19 24 10 13 1017.5 1017.5 0.0
17/10:30am 19.0 16.0 10.6 58 4.6 SSW 17 20 9 11 1017.7 1017.7 0.0
17/10:00am 18.0 16.2 10.9 63 3.8 ESE 11 15 6 8 1017.9 1017.9 0.0
17/09:30am 16.7 13.9 9.9 64 3.6 E 15 20 8 11 1017.9 1017.9 0.0
17/09:00am 16.2 12.9 9.4 64 3.5 ESE 17 20 9 11 1018.0 1018.0 0.0
17/08:30am 14.6 10.7 8.5 67 3.1 SE 19 22 10 12 1018.0 1018.0 0.0
17/08:00am 13.1 8.5 8.0 71 2.5 SE 22 28 12 15 1017.8 1017.8 0.0
17/07:30am 12.0 6.9 7.5 74 2.2 SE 24 30 13 16 1017.6 1017.6 0.0
17/07:00am 10.8 5.9 6.7 76 1.9 SE 22 30 12 16 1017.7 1017.7 0.0
17/06:30am 10.0 4.5 6.0 76 1.9 SE 24 28 13 15 1017.4 1017.4 0.0
17/06:00am 10.0 3.7 5.8 75 1.9 SE 28 32 15 17 1017.1 1017.1 0.0
17/05:30am 10.4 4.5 6.0 74 2.0 SE 26 30 14 16 1017.1 1017.1 0.0
17/05:00am 10.8 4.6 6.2 73 2.2 SE 28 35 15 19 1017.0 1017.0 0.0
17/04:30am 10.8 4.6 6.0 72 2.2 SE 28 35 15 19 1016.8 1016.8 0.0
17/04:00am 10.8 4.5 5.8 71 2.3 SE 28 33 15 18 1016.8 1016.8 0.0
17/03:30am 10.8 4.5 5.8 71 2.3 SE 28 35 15 19 1017.0 1017.0 0.0
17/03:00am 11.2 4.9 5.9 70 2.5 SE 28 33 15 18 1016.9 1016.9 0.0
17/02:30am 11.1 4.8 5.6 69 2.6 SE 28 33 15 18 1017.0 1017.0 0.0
17/02:00am 11.4 5.1 5.5 67 2.7 SE 28 33 15 18 1017.2 1017.2 0.0
17/01:30am 12.1 6.2 5.7 65 3.0 SE 26 32 14 17 1017.4 1017.4 0.0
17/01:00am 12.5 6.6 5.7 63 3.2 SE 26 33 14 18 1017.6 1017.6 0.0
17/12:30am 13.0 7.1 5.7 61 3.4 SE 26 32 14 17 1017.6 1017.6 0.0
17/12:00am 13.4 8.2 5.6 59 3.7 ESE 22 28 12 15 1017.7 1017.7 0.0
 
Date/Time
WST
Temp
°C
App
Temp
°C
Dew
Point
Rel
Hum
%
Delta-T
°C
Wind Press
QNH
hPa
Press
MSL
hPa
Rain
since 9 am
mm
Dir
 
Spd
km/h
Gust
km/h
Spd
kts
Gust
kts
16/11:30pm 13.5 8.4 6.1 61 3.5 SE 22 28 12 15 1018.0 1018.0 0.0
16/11:00pm 13.3 8.2 6.2 62 3.4 ESE 22 28 12 15 1018.0 1018.0 0.0
16/10:30pm 13.4 8.8 6.5 63 3.3 ESE 20 26 11 14 1018.4 1018.4 0.0
16/10:00pm 13.3 8.4 7.1 66 3.0 SE 22 28 12 15 1018.6 1018.6 0.0
16/09:30pm 13.1 8.3 7.5 69 2.8 SE 22 30 12 16 1018.7 1018.7 0.0
16/09:00pm 13.4 8.8 8.0 70 2.7 SE 22 30 12 16 1018.7 1018.7 0.0
16/08:30pm 13.3 9.0 8.0 70 2.6 SE 20 28 11 15 1018.8 1018.8 0.0
16/08:00pm 13.8 9.5 8.0 68 2.9 SSE 20 24 11 13 1018.6 1018.6 0.0
16/07:30pm 13.7 9.7 6.8 63 3.4 SSE 17 20 9 11 1018.4 1018.4 0.0
16/07:00pm 14.0 10.0 6.6 61 3.6 SE 17 20 9 11 1018.2 1018.2 0.0
16/06:30pm 14.8 11.7 5.6 54 4.4 ESE 11 13 6 7 1017.9 1017.9 0.0
16/06:00pm 16.6 15.1 7.0 53 4.8 E 4 7 2 4 1018.0 1018.0 0.0
16/05:30pm 18.1 16.3 7.8 51 5.3 E 7 9 4 5 1018.0 1018.0 0.0
16/05:00pm 19.1 17.2 6.6 44 6.3 E 6 7 3 4 1018.1 1018.1 0.0
16/04:30pm 19.5 16.7 6.9 44 6.4 E 11 15 6 8 1018.0 1018.0 0.0
16/04:00pm 19.4 16.1 6.2 42 6.6 E 13 17 7 9 1018.1 1018.1 0.0
16/03:30pm 19.8 16.1 6.5 42 6.7 E 15 20 8 11 1018.2 1018.2 0.0
16/03:00pm 20.0 16.2 7.4 44 6.5 E 17 20 9 11 1018.3 1018.3 0.0
16/02:30pm 20.0 16.2 7.4 44 6.5 E 17 24 9 13 1018.5 1018.5 0.0
16/02:00pm 19.4 15.1 7.2 45 6.2 ESE 19 26 10 14 1018.7 1018.7 0.0
16/01:30pm 19.1 15.0 7.8 48 5.8 ESE 19 30 10 16 1019.1 1019.0 0.0
16/01:00pm 18.7 14.7 8.9 53 5.1 E 20 32 11 17 1019.4 1019.3 0.0
16/12:30pm 17.9 12.9 7.9 52 5.1 E 24 32 13 17 1019.9 1019.8 0.0
16/12:00pm 17.5 12.7 8.9 57 4.5 E 24 30 13 16 1020.4 1020.3 0.0
16/11:30am 16.5 11.7 8.7 60 4.0 E 24 30 13 16 1021.1 1021.0 0.0
16/11:00am 16.3 12.3 9.0 62 3.8 E 20 33 11 18 1021.8 1021.7 0.0
16/10:30am 15.7 11.2 8.7 63 3.6 E 22 28 12 15 1022.3 1022.2 0.0
16/10:00am 15.2 10.4 8.9 66 3.2 E 24 32 13 17 1022.2 1022.1 0.0
16/09:30am 14.8 10.3 8.7 67 3.1 E 22 30 12 16 1022.6 1022.6 0.0
16/09:00am 14.4 10.3 8.8 69 2.8 ESE 20 26 11 14 1023.3 1023.3 0.0
16/08:30am 13.6 8.0 8.7 72 2.5 E 28 35 15 19 1022.9 1022.9 0.0
16/08:00am 12.3 6.1 8.0 75 2.1 E 30 39 16 21 1022.5 1022.5 0.0
16/07:30am 11.3 4.6 7.4 77 1.9 E 32 41 17 22 1022.2 1022.1 0.0
16/07:00am 10.2 3.7 6.7 79 1.6 E 30 39 16 21 1022.1 1022.0 0.0
16/06:30am 9.3 2.7 6.2 81 1.4 E 30 37 16 20 1021.8 1021.7 0.0
16/06:00am 8.4 1.5 4.6 77 1.7 ESE 30 35 16 19 1021.5 1021.4 0.0
16/05:30am 8.7 1.4 4.5 75 1.9 ESE 32 37 17 20 1021.5 1021.4 0.0
16/05:00am 9.0 1.7 4.4 73 2.0 ESE 32 41 17 22 1021.4 1021.3 0.0
16/04:30am 9.2 2.6 4.4 72 2.1 ESE 28 37 15 20 1021.5 1021.4 0.0
16/04:00am 9.5 3.3 4.5 71 2.2 ESE 26 35 14 19 1021.9 1021.8 0.0
16/03:30am 9.3 3.1 4.3 71 2.2 SE 26 33 14 18 1022.0 1021.9 0.0
16/03:00am 9.7 3.5 4.5 70 2.3 ESE 26 32 14 17 1022.0 1021.9 0.0
16/02:30am 9.7 3.5 4.5 70 2.3 SE 26 35 14 19 1022.3 1022.2 0.0
16/02:00am 9.8 3.3 4.6 70 2.3 SE 28 37 15 20 1022.4 1022.3 0.0
16/01:30am 10.0 3.1 4.8 70 2.3 SE 30 39 16 21 1022.2 1022.1 0.0
16/01:00am 10.1 3.3 4.9 70 2.3 SE 30 39 16 21 1022.2 1022.1 0.0
16/12:30am 10.5 3.3 5.1 69 2.5 SE 32 44 17 24 1022.5 1022.5 0.0
16/12:00am 10.5 3.4 5.3 70 2.4 SE 32 41 17 22 1022.7 1022.7 0.0
 
Date/Time
WST
Temp
°C
App
Temp
°C
Dew
Point
Rel
Hum
%
Delta-T
°C
Wind Press
QNH
hPa
Press
MSL
hPa
Rain
since 9 am
mm
Dir
 
Spd
km/h
Gust
km/h
Spd
kts
Gust
kts
15/11:30pm 10.2 3.0 5.0 70 2.4 SE 32 41 17 22 1022.9 1022.9 0.0
15/11:00pm 10.3 3.5 5.1 70 2.4 SE 30 37 16 20 1023.0 1023.0 0.0
15/10:30pm 10.8 3.5 5.3 69 2.5 SE 33 43 18 23 1023.0 1023.0 0.0
15/10:00pm 11.2 3.9 5.5 68 2.6 SE 33 46 18 25 1023.4 1023.4 0.0
15/09:30pm 11.6 4.0 5.7 67 2.8 SSE 35 48 19 26 1023.4 1023.4 0.0
15/09:00pm 11.7 4.6 5.6 66 2.8 SSE 32 46 17 25 1023.5 1023.5 0.0
15/08:30pm 11.6 5.6 5.3 65 2.9 S 26 35 14 19 1023.6 1023.6 0.0
15/08:00pm 11.8 5.4 5.4 65 3.0 S 28 39 15 21 1023.6 1023.6 0.0
15/07:30pm 11.8 5.8 5.2 64 3.1 S 26 35 14 19 1023.6 1023.6 0.0
15/07:00pm 12.0 6.0 5.2 63 3.1 S 26 33 14 18 1023.4 1023.4 0.0
15/06:30pm 12.4 6.7 5.1 61 3.4 S 24 32 13 17 1023.4 1023.4 0.0
15/06:00pm 13.5 7.5 5.4 58 3.8 S 26 35 14 19 1023.3 1023.3 0.0
15/05:30pm 15.1 9.7 6.4 56 4.2 S 24 30 13 16 1023.1 1023.1 0.0
15/05:00pm 16.0 8.8 7.7 58 4.2 SSW 35 46 19 25 1022.7 1022.7 0.0
15/04:30pm 16.7 10.1 8.4 58 4.3 SSW 33 44 18 24 1022.6 1022.6 0.0
15/04:00pm 16.6 9.8 7.8 56 4.4 SSW 33 48 18 26 1022.6 1022.6 0.0

Other Formats:

Comma delimited format used in spreadsheet applications
http://www.bom.gov.au/fwo/IDW60801/IDW60801.94600.axf

JavaScript Object Notation format (JSON) in row-major order
http://www.bom.gov.au/fwo/IDW60801/IDW60801.94600.json